Time;durP1;ratioP1;P1;durP2;ratioP2;P2;SDS_P1;SDS_P2;PMS_P1;PMS_P2;Temp;Humidity;BMP_temperature;BMP_pressure;BME280_temperature;BME280_humidity;BME280_pressure;Samples;Min_cycle;Max_cycle;Signal;HPM_P1;HPM_P2
2023/01/15 00:00:36;;;;;;;;;;;8.30;99.90;;;;;;5101384;28;19920;-49
2023/01/15 00:03:02;;;;;;;;;;;8.30;99.90;;;;;;5101686;28;19912;-49
2023/01/15 00:05:28;;;;;;;;;;;8.20;99.90;;;;;;5101489;28;19957;-48
2023/01/15 00:07:54;;;;;;;;;;;8.20;99.90;;;;;;5101788;28;19908;-53
2023/01/15 00:10:19;;;;;;;;;;;8.20;99.90;;;;;;5101499;28;19930;-46
2023/01/15 00:12:45;;;;;;;;;;;8.20;99.90;;;;;;5101874;28;19999;-50
2023/01/15 00:15:11;;;;;;;;;;;8.20;99.90;;;;;;5101429;28;19912;-48
2023/01/15 00:17:36;;;;;;;;;;;8.20;99.90;;;;;;5101347;28;19912;-51
2023/01/15 00:20:02;;;;;;;;;;;8.30;99.90;;;;;;5101558;28;19919;-48
2023/01/15 00:22:28;;;;;;;;;;;8.20;99.90;;;;;;5101124;28;20314;-48
2023/01/15 00:27:38;;;;;;;;;;;8.20;99.90;;;;;;5101063;28;20000;-50
2023/01/15 00:30:04;;;;;;;;;;;8.20;99.90;;;;;;5101046;28;19935;-52
2023/01/15 00:32:30;;;;;;;;;;;8.20;99.90;;;;;;5101167;28;19908;-51
2023/01/15 00:34:59;;;;;;;;;;;8.10;99.90;;;;;;5101252;28;19995;-50
2023/01/15 00:37:24;;;;;;;;;;;8.10;99.90;;;;;;5101166;28;19913;-51
2023/01/15 00:39:50;;;;;;;;;;;8.20;99.90;;;;;;5101157;28;20000;-50
2023/01/15 00:42:16;;;;;;;;;;;8.20;99.90;;;;;;5100944;28;19908;-49
2023/01/15 00:44:42;;;;;;;;;;;8.10;99.90;;;;;;5101008;28;19908;-48
2023/01/15 00:47:13;;;;;;;;;;;8.10;99.90;;;;;;5100537;28;19908;-52
2023/01/15 00:49:39;;;;;;;;;;;8.10;99.90;;;;;;5099843;28;19923;-49
2023/01/15 00:52:04;;;;;;;;;;;8.10;99.90;;;;;;5100737;28;19908;-49
2023/01/15 00:54:32;;;;;;;;;;;8.10;99.90;;;;;;5101030;28;19908;-49
2023/01/15 00:56:57;;;;;;;;;;;8.20;99.90;;;;;;5100672;28;19912;-53
2023/01/15 00:59:23;;;;;;;;;;;8.20;99.90;;;;;;5099006;28;19926;-53
2023/01/15 01:01:49;;;;;;;;;;;8.10;99.90;;;;;;5100891;28;19958;-50
2023/01/15 01:04:15;;;;;;;;;;;8.10;99.90;;;;;;5099788;28;19908;-50
2023/01/15 01:06:40;;;;;;;;;;;8.10;99.90;;;;;;5100656;28;19915;-52
2023/01/15 01:09:06;;;;;;;;;;;8.20;99.90;;;;;;5100656;28;19908;-51
2023/01/15 01:11:33;;;;;;;;;;;8.10;99.90;;;;;;5100072;28;20279;-49
2023/01/15 01:14:02;;;;;;;;;;;8.20;99.90;;;;;;5100135;28;20409;-49
2023/01/15 01:16:29;;;;;;;;;;;8.20;99.90;;;;;;5100194;28;19934;-50
2023/01/15 01:18:56;;;;;;;;;;;8.20;99.90;;;;;;5100328;28;19908;-50
2023/01/15 01:21:22;;;;;;;;;;;8.20;99.90;;;;;;5100296;28;19908;-48
2023/01/15 01:23:48;;;;;;;;;;;8.20;99.90;;;;;;5099957;28;19951;-50
2023/01/15 01:26:13;;;;;;;;;;;8.20;99.90;;;;;;5100221;28;19915;-51
2023/01/15 01:28:40;;;;;;;;;;;8.20;99.90;;;;;;5099814;28;19995;-46
2023/01/15 01:31:06;;;;;;;;;;;8.20;99.90;;;;;;5100164;28;19909;-48
2023/01/15 01:33:32;;;;;;;;;;;8.20;99.90;;;;;;5100131;28;19908;-49
2023/01/15 01:35:57;;;;;;;;;;;8.20;99.90;;;;;;5099653;28;19913;-49
2023/01/15 01:38:23;;;;;;;;;;;8.20;99.90;;;;;;5100269;28;19912;-49
2023/01/15 01:40:48;;;;;;;;;;;8.10;99.90;;;;;;5099906;28;19908;-47
2023/01/15 01:43:18;;;;;;;;;;;8.10;99.90;;;;;;5099900;28;19958;-50
2023/01/15 01:45:44;;;;;;;;;;;8.10;99.90;;;;;;5099826;28;19908;-49
2023/01/15 01:48:09;;;;;;;;;;;8.10;99.90;;;;;;5099664;28;19915;-49
2023/01/15 01:50:36;;;;;;;;;;;8.10;99.90;;;;;;5099836;28;19915;-47
2023/01/15 01:53:05;;;;;;;;;;;8.10;99.90;;;;;;5099548;28;19915;-50
2023/01/15 01:55:32;;;;;;;;;;;8.10;99.90;;;;;;5099422;28;19908;-48
2023/01/15 01:57:59;;;;;;;;;;;8.10;99.90;;;;;;5099609;28;20509;-49
2023/01/15 02:00:25;;;;;;;;;;;8.10;99.90;;;;;;5098612;28;19924;-49
2023/01/15 02:02:51;;;;;;;;;;;8.10;99.90;;;;;;5099532;28;19909;-48
2023/01/15 02:05:20;;;;;;;;;;;8.10;99.90;;;;;;5097986;28;19908;-48
2023/01/15 02:07:46;;;;;;;;;;;8.10;99.90;;;;;;5099441;28;19915;-48
2023/01/15 02:10:13;;;;;;;;;;;8.10;99.90;;;;;;5099457;28;19908;-48
2023/01/15 02:12:39;;;;;;;;;;;8.10;99.90;;;;;;5099191;28;19959;-50
2023/01/15 02:15:12;;;;;;;;;;;8.10;99.90;;;;;;5099287;28;19908;-51
2023/01/15 02:17:56;;;;;;;;;;;8.10;99.90;;;;;;5099460;28;20359;-47
2023/01/15 02:20:31;;;;;;;;;;;8.10;99.90;;;;;;5099019;28;19908;-47
2023/01/15 02:23:03;;;;;;;;;;;8.10;99.90;;;;;;5098960;28;20338;-53
2023/01/15 02:25:47;;;;;;;;;;;8.10;99.90;;;;;;5098871;28;19915;-48
2023/01/15 02:28:18;;;;;;;;;;;8.10;99.90;;;;;;5098888;28;19951;-52
2023/01/15 02:30:48;;;;;;;;;;;8.10;99.90;;;;;;5099073;28;19957;-48
2023/01/15 02:33:21;;;;;;;;;;;8.10;99.90;;;;;;5098984;28;19915;-51
2023/01/15 02:35:49;;;;;;;;;;;8.10;99.90;;;;;;5098811;28;19955;-51
2023/01/15 02:38:17;;;;;;;;;;;8.10;99.90;;;;;;5098545;28;20384;-54
2023/01/15 02:40:42;;;;;;;;;;;8.10;99.90;;;;;;5096979;28;19908;-49
2023/01/15 02:43:09;;;;;;;;;;;8.10;99.90;;;;;;5098526;28;19908;-50
2023/01/15 02:45:38;;;;;;;;;;;8.10;99.90;;;;;;5098767;28;19990;-50
2023/01/15 02:48:15;;;;;;;;;;;8.10;99.90;;;;;;5098467;28;19908;-53
2023/01/15 02:50:43;;;;;;;;;;;8.10;99.90;;;;;;5098694;28;19954;-50
2023/01/15 02:53:11;;;;;;;;;;;8.10;99.90;;;;;;5098286;28;19916;-50
2023/01/15 02:55:41;;;;;;;;;;;8.10;99.90;;;;;;5098578;28;20321;-52
2023/01/15 02:58:10;;;;;;;;;;;8.10;99.90;;;;;;5098327;28;20015;-46
2023/01/15 03:00:38;;;;;;;;;;;8.10;99.90;;;;;;5097945;28;19920;-51
2023/01/15 03:03:30;;;;;;;;;;;8.10;99.90;;;;;;5098470;28;20265;-48
2023/01/15 03:06:14;;;;;;;;;;;8.00;99.90;;;;;;5095031;28;19908;-53
2023/01/15 03:08:40;;;;;;;;;;;8.00;99.90;;;;;;5098581;28;20272;-48
2023/01/15 03:11:06;;;;;;;;;;;8.00;99.90;;;;;;5097642;28;19908;-51
2023/01/15 03:13:46;;;;;;;;;;;8.00;99.90;;;;;;5098389;28;19915;-51
2023/01/15 03:19:01;;;;;;;;;;;8.00;99.90;;;;;;5098161;28;20377;-51
2023/01/15 03:21:29;;;;;;;;;;;8.00;99.90;;;;;;5098325;28;19908;-48
2023/01/15 03:23:55;;;;;;;;;;;8.00;99.90;;;;;;5098032;28;19908;-49
2023/01/15 03:26:20;;;;;;;;;;;7.90;99.90;;;;;;5098349;28;19962;-54
2023/01/15 03:28:47;;;;;;;;;;;7.90;99.90;;;;;;5098350;28;19946;-49
2023/01/15 03:31:13;;;;;;;;;;;7.90;99.90;;;;;;5097933;28;19912;-48
2023/01/15 03:33:39;;;;;;;;;;;7.90;99.90;;;;;;5098278;28;19912;-49
2023/01/15 03:36:05;;;;;;;;;;;7.90;99.90;;;;;;5097960;28;19919;-48
2023/01/15 03:38:35;;;;;;;;;;;7.80;99.90;;;;;;5098300;28;20309;-50
2023/01/15 03:41:14;;;;;;;;;;;7.80;99.90;;;;;;5097884;28;19916;-48
2023/01/15 03:43:45;;;;;;;;;;;7.80;99.90;;;;;;5098065;28;19992;-50
2023/01/15 03:46:18;;;;;;;;;;;7.70;99.90;;;;;;5097893;28;19912;-48
2023/01/15 03:48:54;;;;;;;;;;;7.70;99.90;;;;;;5098028;28;19958;-49
2023/01/15 03:51:24;;;;;;;;;;;7.70;99.90;;;;;;5097683;28;19912;-50
2023/01/15 03:53:52;;;;;;;;;;;7.60;99.90;;;;;;5097852;28;19908;-50
2023/01/15 03:56:23;;;;;;;;;;;7.60;99.90;;;;;;5097829;28;19912;-47
2023/01/15 03:58:56;;;;;;;;;;;7.60;99.90;;;;;;5097501;28;19983;-47
2023/01/15 04:01:30;;;;;;;;;;;6.90;99.90;;;;;;5097745;28;19996;-46
2023/01/15 04:03:57;;;;;;;;;;;7.50;99.90;;;;;;5098002;28;19940;-46
2023/01/15 04:06:25;;;;;;;;;;;7.50;99.90;;;;;;5097697;28;19908;-46
2023/01/15 04:08:51;;;;;;;;;;;7.50;99.90;;;;;;5097859;28;19912;-48
2023/01/15 04:11:21;;;;;;;;;;;7.50;99.90;;;;;;5098009;28;19916;-45
2023/01/15 04:13:47;;;;;;;;;;;7.50;99.90;;;;;;5097906;28;19908;-48
2023/01/15 04:16:12;;;;;;;;;;;7.50;99.90;;;;;;5097809;28;20298;-46
2023/01/15 04:18:38;;;;;;;;;;;7.50;99.90;;;;;;5098135;28;19957;-46
2023/01/15 04:21:03;;;;;;;;;;;7.50;99.90;;;;;;5097816;28;19908;-46
2023/01/15 04:23:29;;;;;;;;;;;7.60;99.90;;;;;;5100326;28;19908;-47
2023/01/15 04:25:55;;;;;;;;;;;7.60;99.90;;;;;;5101675;28;19908;-45
2023/01/15 04:28:21;;;;;;;;;;;7.60;99.90;;;;;;5101457;28;19957;-47
2023/01/15 04:30:46;;;;;;;;;;;7.70;99.90;;;;;;5101447;28;19951;-46
2023/01/15 04:33:12;;;;;;;;;;;7.80;99.90;;;;;;5101134;28;20135;-46
2023/01/15 04:35:37;;;;;;;;;;;7.80;99.90;;;;;;5100346;28;19909;-47
2023/01/15 04:38:03;;;;;;;;;;;7.80;99.90;;;;;;5101119;28;19909;-47
2023/01/15 04:45:58;;;;;;;;;;;7.80;99.90;;;;;;5101161;28;19915;-47
2023/01/15 04:48:23;;;;;;;;;;;7.80;99.90;;;;;;5101165;28;19912;-47
2023/01/15 04:50:49;;;;;;;;;;;7.90;99.90;;;;;;5101132;28;19915;-46
2023/01/15 04:53:15;;;;;;;;;;;7.90;99.90;;;;;;5100871;28;19968;-48
2023/01/15 04:55:40;;;;;;;;;;;7.90;99.90;;;;;;5100820;28;19959;-47
2023/01/15 04:58:06;;;;;;;;;;;7.90;99.90;;;;;;5100683;28;20371;-46
2023/01/15 05:00:32;;;;;;;;;;;7.90;99.90;;;;;;5100171;28;20386;-47
2023/01/15 05:02:57;;;;;;;;;;;7.90;99.90;;;;;;5100357;28;20030;-47
2023/01/15 05:05:23;;;;;;;;;;;7.90;99.90;;;;;;5100975;28;19919;-47
2023/01/15 05:07:48;;;;;;;;;;;7.90;99.90;;;;;;5100552;28;19908;-50
2023/01/15 05:10:14;;;;;;;;;;;7.90;99.90;;;;;;5100944;28;19930;-46
2023/01/15 05:12:40;;;;;;;;;;;7.90;99.90;;;;;;5100367;28;19930;-46
2023/01/15 05:15:06;;;;;;;;;;;7.90;99.90;;;;;;5100869;28;19976;-46
2023/01/15 05:17:32;;;;;;;;;;;8.00;99.90;;;;;;5100484;28;19936;-47
2023/01/15 05:19:57;;;;;;;;;;;8.00;99.90;;;;;;5100585;28;19908;-47
2023/01/15 05:22:23;;;;;;;;;;;8.00;99.90;;;;;;5100625;28;19912;-49
2023/01/15 05:24:48;;;;;;;;;;;8.00;99.90;;;;;;5100569;28;20375;-47
2023/01/15 05:27:14;;;;;;;;;;;8.00;99.90;;;;;;5100146;28;19931;-46
2023/01/15 05:29:40;;;;;;;;;;;8.10;99.90;;;;;;5100160;28;19908;-46
2023/01/15 05:32:05;;;;;;;;;;;8.00;99.90;;;;;;5100072;28;19908;-46
2023/01/15 05:34:31;;;;;;;;;;;8.00;99.90;;;;;;5099763;28;19908;-48
2023/01/15 05:36:57;;;;;;;;;;;8.00;99.90;;;;;;5100129;28;19912;-47
2023/01/15 05:39:22;;;;;;;;;;;8.00;99.90;;;;;;5100194;28;20338;-47
2023/01/15 05:41:48;;;;;;;;;;;8.00;99.90;;;;;;5099837;28;19908;-47
2023/01/15 05:44:15;;;;;;;;;;;8.00;99.90;;;;;;5099890;28;19908;-46
2023/01/15 05:46:42;;;;;;;;;;;8.00;99.90;;;;;;5099796;28;20367;-47
2023/01/15 05:49:09;;;;;;;;;;;8.00;99.90;;;;;;5099928;28;20372;-47
2023/01/15 05:51:35;;;;;;;;;;;8.00;99.90;;;;;;5099674;28;20409;-47
2023/01/15 05:54:01;;;;;;;;;;;8.00;99.90;;;;;;5099672;28;19908;-46
2023/01/15 05:56:26;;;;;;;;;;;8.00;99.90;;;;;;5099475;28;19974;-48
2023/01/15 05:58:52;;;;;;;;;;;8.00;99.90;;;;;;5099376;28;19928;-46
2023/01/15 06:01:18;;;;;;;;;;;8.00;99.90;;;;;;5099577;28;19908;-48
2023/01/15 06:03:45;;;;;;;;;;;8.00;99.90;;;;;;5099661;28;20256;-47
2023/01/15 06:06:15;;;;;;;;;;;8.00;99.90;;;;;;5099569;28;19915;-46
2023/01/15 06:08:40;;;;;;;;;;;8.10;99.90;;;;;;5099284;28;20660;-48
2023/01/15 06:11:06;;;;;;;;;;;8.10;99.90;;;;;;5099361;28;19914;-47
2023/01/15 06:13:32;;;;;;;;;;;8.10;99.90;;;;;;5099626;28;19908;-46
2023/01/15 06:15:58;;;;;;;;;;;8.10;99.90;;;;;;5099625;28;19920;-47
2023/01/15 06:18:24;;;;;;;;;;;8.10;99.90;;;;;;5099152;28;20426;-47
2023/01/15 06:20:50;;;;;;;;;;;8.10;99.90;;;;;;5099187;28;19962;-46
2023/01/15 06:23:16;;;;;;;;;;;8.20;99.90;;;;;;5099101;28;20416;-48
2023/01/15 06:25:42;;;;;;;;;;;8.10;99.90;;;;;;5098159;28;20363;-48
2023/01/15 06:28:07;;;;;;;;;;;8.10;99.90;;;;;;5099346;28;19931;-48
2023/01/15 06:30:33;;;;;;;;;;;8.00;99.90;;;;;;5099118;28;20287;-48
2023/01/15 06:32:59;;;;;;;;;;;8.00;99.90;;;;;;5099079;28;19920;-48
2023/01/15 06:35:25;;;;;;;;;;;8.00;99.90;;;;;;5099024;28;19915;-47
2023/01/15 06:37:51;;;;;;;;;;;8.00;99.90;;;;;;5098717;28;19973;-49
2023/01/15 06:40:17;;;;;;;;;;;7.90;99.90;;;;;;5099247;28;19908;-46
2023/01/15 06:48:12;;;;;;;;;;;7.80;99.90;;;;;;5098933;28;19931;-47
2023/01/15 06:50:38;;;;;;;;;;;7.80;99.90;;;;;;5097858;28;19908;-48
2023/01/15 06:53:03;;;;;;;;;;;7.70;99.90;;;;;;5098772;28;20271;-49
2023/01/15 06:55:29;;;;;;;;;;;7.80;99.90;;;;;;5098737;28;19930;-49
2023/01/15 06:57:54;;;;;;;;;;;7.80;99.90;;;;;;5098367;28;19919;-46
2023/01/15 07:00:20;;;;;;;;;;;7.80;99.90;;;;;;5098209;28;19942;-46
2023/01/15 07:02:46;;;;;;;;;;;7.80;99.90;;;;;;5098356;28;19908;-46
2023/01/15 07:05:11;;;;;;;;;;;7.80;99.90;;;;;;5098567;28;20281;-46
2023/01/15 07:07:37;;;;;;;;;;;7.80;99.90;;;;;;5098729;28;19908;-47
2023/01/15 07:10:03;;;;;;;;;;;7.80;99.90;;;;;;5098355;28;20415;-47
2023/01/15 07:12:29;;;;;;;;;;;7.80;99.90;;;;;;5098209;28;20417;-48
2023/01/15 07:14:54;;;;;;;;;;;7.80;99.90;;;;;;5098265;28;19962;-47
2023/01/15 07:17:20;;;;;;;;;;;7.80;99.90;;;;;;5098130;28;19916;-46
2023/01/15 07:19:46;;;;;;;;;;;7.80;99.90;;;;;;5098376;28;19908;-46
2023/01/15 07:22:11;;;;;;;;;;;7.80;99.90;;;;;;5098133;28;20272;-47
2023/01/15 07:24:37;;;;;;;;;;;7.80;99.90;;;;;;5097898;28;19908;-46
2023/01/15 07:27:03;;;;;;;;;;;7.80;99.90;;;;;;5097962;28;19912;-48
2023/01/15 07:29:29;;;;;;;;;;;7.90;99.90;;;;;;5098149;28;19908;-49
2023/01/15 07:31:54;;;;;;;;;;;7.90;99.90;;;;;;5098290;28;19915;-46
2023/01/15 07:34:20;;;;;;;;;;;7.90;99.90;;;;;;5097984;28;19908;-47
2023/01/15 07:36:46;;;;;;;;;;;7.90;99.90;;;;;;5097944;28;19912;-46
2023/01/15 07:39:12;;;;;;;;;;;7.90;99.90;;;;;;5098203;28;19915;-46
2023/01/15 07:50:06;;;;;;;;;;;8.00;99.90;;;;;;5097969;28;19915;-46
2023/01/15 07:52:32;;;;;;;;;;;8.00;99.90;;;;;;5097971;28;19908;-46
2023/01/15 07:54:57;;;;;;;;;;;8.00;99.90;;;;;;5097861;28;20422;-46
2023/01/15 07:57:23;;;;;;;;;;;8.00;99.90;;;;;;5098896;28;20010;-46
2023/01/15 07:59:49;;;;;;;;;;;8.00;99.90;;;;;;5100973;28;19920;-51
2023/01/15 08:02:15;;;;;;;;;;;8.10;99.90;;;;;;5101885;28;19913;-54
2023/01/15 08:04:40;;;;;;;;;;;8.10;99.90;;;;;;5101893;28;19915;-53
2023/01/15 08:07:06;;;;;;;;;;;8.10;99.90;;;;;;5101884;28;19908;-53
2023/01/15 08:09:32;;;;;;;;;;;8.10;99.90;;;;;;5101605;28;19914;-53
2023/01/15 08:17:27;;;;;;;;;;;8.10;99.90;;;;;;5101250;28;20042;-55
2023/01/15 08:19:52;;;;;;;;;;;8.10;99.90;;;;;;5101356;28;19954;-53
2023/01/15 08:22:18;;;;;;;;;;;8.10;99.90;;;;;;5101770;28;19947;-54
2023/01/15 08:24:44;;;;;;;;;;;8.10;99.90;;;;;;5101381;28;19935;-53
2023/01/15 08:27:09;;;;;;;;;;;8.10;99.90;;;;;;5101209;28;19999;-53
2023/01/15 08:29:35;;;;;;;;;;;8.10;99.90;;;;;;5101302;28;19915;-52
2023/01/15 08:32:00;;;;;;;;;;;8.00;99.90;;;;;;5099664;28;19908;-54
2023/01/15 08:34:26;;;;;;;;;;;8.10;99.90;;;;;;5101035;28;19909;-51
2023/01/15 08:36:56;;;;;;;;;;;8.10;99.90;;;;;;5100774;28;19912;-53
2023/01/15 08:39:22;;;;;;;;;;;8.10;99.90;;;;;;5100916;28;19916;-52
2023/01/15 08:41:47;;;;;;;;;;;8.10;99.90;;;;;;5101360;28;20279;-53
2023/01/15 08:44:15;;;;;;;;;;;8.20;99.90;;;;;;5101116;28;19912;-51
2023/01/15 08:46:41;;;;;;;;;;;8.30;99.90;;;;;;5100481;28;20415;-53
2023/01/15 08:49:09;;;;;;;;;;;8.30;99.90;;;;;;5099298;28;19908;-50
2023/01/15 08:51:34;;;;;;;;;;;8.30;99.90;;;;;;5100696;28;20363;-54
2023/01/15 08:54:00;;;;;;;;;;;8.30;99.90;;;;;;5100475;28;19916;-53
2023/01/15 08:56:26;;;;;;;;;;;8.20;99.90;;;;;;5100997;28;19912;-54
2023/01/15 08:58:51;;;;;;;;;;;8.20;99.90;;;;;;5100370;28;19917;-51
2023/01/15 09:01:17;;;;;;;;;;;8.10;99.90;;;;;;5100538;28;19908;-54
2023/01/15 09:03:43;;;;;;;;;;;8.10;99.90;;;;;;5100707;28;20280;-50
2023/01/15 09:06:09;;;;;;;;;;;8.00;99.90;;;;;;5100846;28;19981;-49
2023/01/15 09:08:35;;;;;;;;;;;8.00;99.90;;;;;;5099508;28;20371;-52
2023/01/15 09:11:02;;;;;;;;;;;7.90;99.90;;;;;;5100200;28;19908;-54
2023/01/15 09:13:28;;;;;;;;;;;7.90;99.90;;;;;;5100513;28;19915;-52
2023/01/15 09:15:58;;;;;;;;;;;7.90;99.90;;;;;;5100700;28;19919;-51
2023/01/15 09:18:23;;;;;;;;;;;7.80;99.90;;;;;;5100187;28;20359;-54
2023/01/15 09:20:49;;;;;;;;;;;7.80;99.90;;;;;;5100087;28;19908;-54
2023/01/15 09:23:15;;;;;;;;;;;7.90;99.90;;;;;;5100259;28;19916;-52
2023/01/15 09:25:49;;;;;;;;;;;7.90;99.90;;;;;;5099929;28;19937;-54
2023/01/15 09:28:15;;;;;;;;;;;7.90;99.90;;;;;;5100220;28;20007;-53
2023/01/15 09:30:40;;;;;;;;;;;8.00;99.90;;;;;;5100032;28;19935;-53
2023/01/15 09:33:06;;;;;;;;;;;8.00;99.90;;;;;;5100293;28;20449;-54
2023/01/15 09:35:32;;;;;;;;;;;8.00;99.90;;;;;;5100176;28;19908;-50
2023/01/15 09:37:57;;;;;;;;;;;8.10;99.90;;;;;;5100040;28;19999;-51
2023/01/15 09:40:32;;;;;;;;;;;8.10;99.90;;;;;;5099781;28;20006;-54
2023/01/15 09:43:03;;;;;;;;;;;8.20;99.90;;;;;;5099943;28;20348;-51
2023/01/15 09:45:35;;;;;;;;;;;8.20;99.90;;;;;;5100156;28;19912;-52
2023/01/15 09:48:13;;;;;;;;;;;8.30;99.90;;;;;;5099602;28;20378;-48
2023/01/15 09:50:58;;;;;;;;;;;8.30;99.90;;;;;;5098174;28;19948;-48
2023/01/15 09:53:23;;;;;;;;;;;8.40;99.90;;;;;;5099603;28;19908;-48
2023/01/15 09:55:49;;;;;;;;;;;8.40;99.90;;;;;;5099381;28;19908;-49
2023/01/15 09:58:19;;;;;;;;;;;8.50;99.90;;;;;;5099541;28;19908;-47
2023/01/15 10:00:46;;;;;;;;;;;8.60;99.90;;;;;;5099741;28;19920;-52
2023/01/15 10:03:34;;;;;;;;;;;8.60;99.90;;;;;;5099197;28;19908;-46
2023/01/15 10:06:00;;;;;;;;;;;8.70;99.90;;;;;;5099155;28;19908;-46
2023/01/15 10:08:31;;;;;;;;;;;8.80;99.90;;;;;;5099384;28;19915;-47
2023/01/15 10:11:15;;;;;;;;;;;8.80;99.90;;;;;;5099376;28;19909;-49
2023/01/15 10:13:40;;;;;;;;;;;8.90;99.90;;;;;;5099125;28;19995;-47
2023/01/15 10:16:08;;;;;;;;;;;9.00;99.90;;;;;;5099134;28;19947;-47
2023/01/15 10:18:34;;;;;;;;;;;9.00;99.90;;;;;;5099239;28;20477;-46
2023/01/15 10:21:07;;;;;;;;;;;9.10;99.90;;;;;;5098944;28;19944;-46
2023/01/15 10:23:34;;;;;;;;;;;9.10;99.90;;;;;;5098949;28;19995;-50
2023/01/15 10:26:17;;;;;;;;;;;9.20;99.90;;;;;;5099152;28;19908;-46
2023/01/15 10:28:51;;;;;;;;;;;9.30;99.90;;;;;;5099007;28;19908;-47
2023/01/15 10:31:21;;;;;;;;;;;9.30;99.90;;;;;;5099219;28;19908;-47
2023/01/15 10:33:59;;;;;;;;;;;9.30;99.90;;;;;;5098991;28;19908;-47
2023/01/15 10:36:29;;;;;;;;;;;9.30;99.90;;;;;;5098977;28;19919;-46
2023/01/15 10:38:58;;;;;;;;;;;9.20;99.90;;;;;;5099079;28;19911;-46
2023/01/15 10:41:43;;;;;;;;;;;9.10;99.90;;;;;;5098676;28;19912;-46
2023/01/15 10:44:18;;;;;;;;;;;9.00;99.90;;;;;;5099058;28;19915;-46
2023/01/15 10:46:46;;;;;;;;;;;8.90;99.90;;;;;;5098610;28;19912;-47
2023/01/15 10:49:12;;;;;;;;;;;8.90;99.90;;;;;;5098537;28;19927;-47
2023/01/15 10:51:41;;;;;;;;;;;8.80;99.90;;;;;;5098539;28;19966;-47
2023/01/15 10:54:11;;;;;;;;;;;8.70;99.90;;;;;;5098838;28;19908;-48
2023/01/15 10:56:42;;;;;;;;;;;8.80;99.90;;;;;;5098657;28;19919;-46
2023/01/15 10:59:14;;;;;;;;;;;8.80;99.90;;;;;;5098060;28;20387;-47
2023/01/15 11:01:40;;;;;;;;;;;8.80;99.90;;;;;;5098618;28;20363;-46
2023/01/15 11:04:11;;;;;;;;;;;8.90;99.90;;;;;;5098438;28;19973;-47
2023/01/15 11:06:36;;;;;;;;;;;9.10;99.90;;;;;;5098380;28;19972;-46
2023/01/15 11:09:03;;;;;;;;;;;9.30;99.90;;;;;;5098691;28;20393;-47
2023/01/15 11:19:37;;;;;;;;;;;10.10;99.90;;;;;;5097818;28;20007;-48
2023/01/15 11:22:08;;;;;;;;;;;10.10;99.90;;;;;;5097743;28;20271;-48
2023/01/15 11:24:51;;;;;;;;;;;10.10;99.90;;;;;;5097801;28;19912;-49
2023/01/15 11:27:19;;;;;;;;;;;10.10;99.90;;;;;;5098065;28;19948;-47
2023/01/15 11:29:45;;;;;;;;;;;10.10;99.90;;;;;;5098190;28;19908;-49
2023/01/15 11:32:22;;;;;;;;;;;10.10;99.90;;;;;;5097152;28;20303;-47
2023/01/15 11:34:52;;;;;;;;;;;10.20;99.90;;;;;;5098029;28;19939;-48
2023/01/15 11:37:18;;;;;;;;;;;10.10;99.90;;;;;;5097765;28;19912;-48
2023/01/15 11:39:51;;;;;;;;;;;10.10;99.90;;;;;;5098052;28;19941;-51
2023/01/15 11:50:46;;;;;;;;;;;9.70;99.90;;;;;;5097780;28;20038;-46
2023/01/15 11:53:17;;;;;;;;;;;9.80;99.90;;;;;;5097815;28;20283;-47
2023/01/15 11:56:09;;;;;;;;;;;10.00;99.90;;;;;;5097732;28;19912;-47
2023/01/15 11:58:52;;;;;;;;;;;10.20;99.90;;;;;;5093948;28;19912;-50
2023/01/15 12:01:27;;;;;;;;;;;10.40;99.90;;;;;;5097005;28;19908;-46
2023/01/15 12:03:53;;;;;;;;;;;10.70;99.90;;;;;;5097606;28;19970;-47
2023/01/15 12:06:19;;;;;;;;;;;11.00;99.90;;;;;;5097532;28;19908;-52
2023/01/15 12:08:50;;;;;;;;;;;11.10;99.90;;;;;;5098000;28;19953;-47
2023/01/15 12:11:25;;;;;;;;;;;11.20;99.90;;;;;;5097464;28;19908;-47
2023/01/15 12:14:10;;;;;;;;;;;11.30;99.90;;;;;;5097929;28;19955;-46
2023/01/15 12:16:42;;;;;;;;;;;11.20;99.90;;;;;;5097343;28;20282;-50
2023/01/15 12:19:16;;;;;;;;;;;11.20;99.90;;;;;;5097559;28;20394;-47
2023/01/15 12:22:00;;;;;;;;;;;11.20;99.90;;;;;;5097395;28;20310;-52
2023/01/15 12:24:49;;;;;;;;;;;11.10;99.90;;;;;;5097498;28;19908;-47
2023/01/15 12:27:33;;;;;;;;;;;11.20;99.90;;;;;;5088935;28;19915;-47
2023/01/15 12:30:05;;;;;;;;;;;11.30;99.90;;;;;;5097160;28;19962;-48
2023/01/15 12:32:37;;;;;;;;;;;11.50;99.90;;;;;;5097289;28;19908;-50
2023/01/15 12:35:23;;;;;;;;;;;11.50;99.90;;;;;;5097745;28;19908;-48
2023/01/15 12:37:51;;;;;;;;;;;11.50;99.90;;;;;;5096657;28;19958;-48
2023/01/15 12:40:20;;;;;;;;;;;11.60;99.90;;;;;;5097578;28;20013;-48
2023/01/15 12:45:36;;;;;;;;;;;11.90;99.90;;;;;;5100979;28;19915;-49
2023/01/15 12:48:24;;;;;;;;;;;12.10;99.90;;;;;;5100820;28;19908;-47
2023/01/15 12:50:51;;;;;;;;;;;12.30;99.90;;;;;;5092476;28;19908;-47
2023/01/15 12:53:32;;;;;;;;;;;12.60;99.90;;;;;;5100764;28;19930;-48
2023/01/15 12:56:01;;;;;;;;;;;12.70;99.90;;;;;;5100796;28;19908;-46
2023/01/15 12:58:45;;;;;;;;;;;12.90;99.90;;;;;;5100422;28;19908;-47
2023/01/15 13:01:10;;;;;;;;;;;13.00;99.90;;;;;;5100492;28;19947;-46
2023/01/15 13:03:47;;;;;;;;;;;13.00;99.90;;;;;;5100751;28;19908;-47
2023/01/15 13:06:13;;;;;;;;;;;13.00;99.90;;;;;;5100454;28;19961;-48
2023/01/15 13:08:44;;;;;;;;;;;12.90;99.90;;;;;;5100736;28;19908;-48
2023/01/15 13:11:13;;;;;;;;;;;12.80;99.90;;;;;;5100605;28;19999;-49
2023/01/15 13:13:39;;;;;;;;;;;12.70;99.90;;;;;;5100728;28;19908;-49
2023/01/15 13:16:15;;;;;;;;;;;12.60;99.90;;;;;;5100514;28;19909;-50
2023/01/15 13:18:59;;;;;;;;;;;12.40;99.90;;;;;;5100665;28;19972;-50
2023/01/15 13:21:26;;;;;;;;;;;12.30;99.90;;;;;;5100429;28;19908;-49
2023/01/15 13:24:15;;;;;;;;;;;12.30;99.90;;;;;;5100205;28;19908;-50
2023/01/15 13:26:44;;;;;;;;;;;12.20;99.90;;;;;;5100237;28;19999;-49
2023/01/15 13:29:10;;;;;;;;;;;12.20;99.90;;;;;;5099905;28;19908;-47
2023/01/15 13:31:50;;;;;;;;;;;12.20;99.90;;;;;;5100002;28;20007;-50
2023/01/15 13:34:22;;;;;;;;;;;12.20;99.90;;;;;;5099902;28;19908;-48
2023/01/15 13:36:48;;;;;;;;;;;12.10;99.90;;;;;;5099593;28;19912;-47
2023/01/15 13:39:21;;;;;;;;;;;12.10;99.90;;;;;;5100004;28;19912;-47
2023/01/15 13:44:35;;;;;;;;;;;12.00;99.90;;;;;;5099877;28;19923;-48
2023/01/15 13:47:03;;;;;;;;;;;12.00;99.90;;;;;;5099747;28;19923;-47
2023/01/15 13:49:31;;;;;;;;;;;11.90;99.90;;;;;;5099730;28;19991;-49
2023/01/15 13:52:02;;;;;;;;;;;11.80;99.90;;;;;;5099460;28;19908;-51
2023/01/15 13:54:29;;;;;;;;;;;11.60;99.90;;;;;;5099125;28;20348;-46
2023/01/15 13:57:06;;;;;;;;;;;11.50;99.90;;;;;;5099040;28;19955;-48
2023/01/15 13:59:42;;;;;;;;;;;11.30;99.90;;;;;;5099379;28;19942;-47
2023/01/15 14:02:24;;;;;;;;;;;11.20;99.90;;;;;;5099971;28;20265;-48
2023/01/15 14:04:50;;;;;;;;;;;11.00;99.90;;;;;;5099470;28;19930;-48
2023/01/15 14:07:22;;;;;;;;;;;10.90;99.90;;;;;;5099245;28;19908;-47
2023/01/15 14:09:50;;;;;;;;;;;10.90;99.90;;;;;;5097343;28;20200;-49
2023/01/15 14:12:35;;;;;;;;;;;10.80;99.90;;;;;;5099154;28;19908;-49
2023/01/15 14:15:19;;;;;;;;;;;10.70;99.90;;;;;;5099176;28;20323;-47
2023/01/15 14:18:03;;;;;;;;;;;10.60;99.90;;;;;;5098747;28;19991;-51
2023/01/15 14:20:29;;;;;;;;;;;10.50;99.90;;;;;;5098840;28;20002;-47
2023/01/15 14:23:13;;;;;;;;;;;10.50;99.90;;;;;;5098817;28;19912;-48
2023/01/15 14:25:47;;;;;;;;;;;10.40;99.90;;;;;;5098870;28;19908;-49
2023/01/15 14:28:13;;;;;;;;;;;10.30;99.90;;;;;;5099117;28;20284;-47
2023/01/15 14:30:57;;;;;;;;;;;10.30;99.90;;;;;;5099027;28;19930;-53
2023/01/15 14:33:28;;;;;;;;;;;10.20;99.90;;;;;;5098753;28;19911;-52
2023/01/15 14:35:54;;;;;;;;;;;10.20;99.90;;;;;;5098904;28;19954;-47
2023/01/15 14:38:22;;;;;;;;;;;10.10;99.90;;;;;;5098575;28;19912;-49
2023/01/15 14:40:53;;;;;;;;;;;10.10;99.90;;;;;;5098921;28;20371;-47
2023/01/15 14:43:20;;;;;;;;;;;10.10;99.90;;;;;;5099079;28;19908;-48
2023/01/15 14:45:48;;;;;;;;;;;10.10;99.90;;;;;;5098638;28;19908;-48
2023/01/15 14:48:20;;;;;;;;;;;10.00;99.90;;;;;;5098177;28;19961;-55
2023/01/15 14:50:47;;;;;;;;;;;10.00;99.90;;;;;;5098482;28;19908;-47
2023/01/15 14:53:13;;;;;;;;;;;10.00;99.90;;;;;;5098586;28;20000;-54
2023/01/15 14:55:42;;;;;;;;;;;10.00;99.90;;;;;;5098396;28;19912;-51
2023/01/15 14:58:16;;;;;;;;;;;10.00;99.90;;;;;;5098202;28;19918;-51
2023/01/15 15:00:44;;;;;;;;;;;10.00;99.90;;;;;;5097944;28;19974;-49
2023/01/15 15:03:16;;;;;;;;;;;10.00;99.90;;;;;;5098155;28;20345;-50
2023/01/15 15:05:43;;;;;;;;;;;10.00;99.90;;;;;;5098051;28;20363;-48
2023/01/15 15:08:12;;;;;;;;;;;9.90;99.90;;;;;;5097283;28;19912;-49
2023/01/15 15:10:40;;;;;;;;;;;9.90;99.90;;;;;;5097895;28;19995;-55
2023/01/15 15:13:18;;;;;;;;;;;9.80;99.90;;;;;;5096754;28;19991;-49
2023/01/15 15:15:52;;;;;;;;;;;9.80;99.90;;;;;;5098566;28;19912;-51
2023/01/15 15:18:23;;;;;;;;;;;9.70;99.90;;;;;;5097927;28;20003;-48
2023/01/15 15:20:52;;;;;;;;;;;9.70;99.90;;;;;;5098036;28;19908;-49
2023/01/15 15:23:21;;;;;;;;;;;9.70;99.90;;;;;;5097945;28;19941;-48
2023/01/15 15:25:53;;;;;;;;;;;9.60;99.90;;;;;;5098190;28;20375;-52
2023/01/15 15:28:18;;;;;;;;;;;9.60;99.90;;;;;;5098264;28;19930;-49